x

Stannard Rock, Mi (stdm4) Weather Station

11:00pm - Sat 13th Feb 2016 All times are CST. -6 hours from GMT.

  • Wind
    8mph, 11mph gusts
  • Air Temp 13°f
  • Sea Pressure 1030.7mb
  • Stannard Rock, Mi
  • Stannard Rock, Mi

More Historic Weather Station data

Upgrade to MSW Pro to gain access to the past 30 days of data for over 8000 Wavebouys and Weather Stations around the globe.

Join Pro

Comparision Forecast

View Surf forecast
   
Sat 02/13 11:00pm 8 11 mph 1030.7mb 13f
10:00pm 8 11 mph 1030.7mb 13f
9:00pm 15 20 mph 1031.2mb 12f
8:00pm 15 17 mph 1031.7mb 11f
7:00pm 17 21 mph 1032mb 11f
6:00pm 18 21 mph 1032.5mb 10f
5:00pm 20 24 mph 1032.4mb 10f
4:00pm 18 22 mph 1032.3mb 9f
3:00pm 22 25 mph 1032.1mb 8f
2:00pm 23 28 mph 1032.3mb 8f
1:00pm 25 30 mph 1032.4mb 7f
12:00pm 24 28 mph 1032.8mb 7f
11:00am 24 29 mph 1032.8mb 6f
10:00am 24 28 mph 1032.6mb 6f
9:00am 28 32 mph 1032.3mb 5f
8:00am 31 36 mph 1031.9mb 5f
7:00am 26 31 mph 1031.4mb 5f
6:00am 31 34 mph 1031mb 5f
5:00am 30 34 mph 1030.7mb 5f
4:00am 30 34 mph 1030.5mb 5f
3:00am 33 39 mph 1030mb 5f
2:00am 36 39 mph 1029.4mb 5f
1:00am 34 43 mph 1028.9mb 5f
12:00am 37 43 mph 1028.8mb 5f
Fri 02/12 11:00pm 31 36 mph 1028.6mb 6f
10:00pm 33 44 mph 1027.9mb 6f
9:00pm 34 38 mph 1027.4mb 6f
8:00pm 34 39 mph 1027mb 6f
7:00pm 36 44 mph 1026.5mb 5f
6:00pm 36 40 mph 1026mb 4f
5:00pm 31 38 mph 1025.6mb 3f
4:00pm 37 40 mph 1024.8mb 3f
3:00pm 33 38 mph 1024.2mb 1f
2:00pm 37 39 mph 1023.4mb 1f
1:00pm 36 44 mph 1023.1mb -1f
12:00pm 38 43 mph 1022.3mb -
11:00am 39 45 mph 1021.5mb 1f
10:00am 44 48 mph 1020.1mb 2f
9:00am 39 43 mph 1018.6mb 5f
8:00am 39 44 mph 1017.2mb 8f
7:00am 37 39 mph 1016.4mb 11f
6:00am 38 43 mph 1015.5mb 13f
5:00am 38 43 mph 1015mb 14f
4:00am 38 44 mph 1014.8mb 14f
3:00am 32 37 mph 1015mb 15f
2:00am 32 36 mph 1015.1mb 15f
1:00am 33 38 mph 1015.3mb 15f
12:00am 36 40 mph 1015.8mb 16f
Thu 02/11 11:00pm 43 47 mph 1016mb 17f
10:00pm 37 40 mph 1016.1mb 18f
9:00pm 36 39 mph 1016.7mb 19f
8:00pm 33 40 mph 1017.8mb 20f
7:00pm 34 44 mph 1018.2mb 19f
6:00pm 32 38 mph 1018.8mb 19f
5:00pm 31 37 mph 1019.2mb 17f
4:00pm 32 37 mph 1019.9mb 16f
3:00pm 22 26 mph 1020.7mb 15f
2:00pm 33 38 mph 1020.9mb 14f
1:00pm 32 38 mph 1021.6mb 13f
12:00pm 29 33 mph 1022.2mb 12f
11:00am 28 33 mph 1022.7mb 12f
10:00am 23 29 mph 1022.8mb 12f
9:00am 25 31 mph 1022.5mb 12f
8:00am 26 30 mph 1022.4mb 13f
7:00am 17 20 mph 1022.7mb 12f
6:00am 26 29 mph 1022.1mb 12f
5:00am 18 21 mph 1022.2mb 12f
4:00am 25 29 mph 1021.5mb 11f
3:00am 29 33 mph 1021.3mb 11f
2:00am 24 29 mph 1021.2mb 11f
1:00am 28 32 mph 1020.7mb 11f
12:00am 30 34 mph 1020.3mb 10f
Wed 02/10 11:00pm 31 34 mph 1020.2mb 11f
10:00pm 31 34 mph 1020mb 11f
9:00pm 34 46 mph 1019.6mb 11f
8:00pm 34 39 mph 1019.3mb 11f
7:00pm 33 36 mph 1019.1mb 11f
6:00pm 34 38 mph 1018.6mb 11f
5:00pm 31 37 mph 1018.3mb 11f
4:00pm 32 38 mph 1017.8mb 10f
3:00pm 28 32 mph 1017.3mb 10f
2:00pm 26 30 mph 1016.9mb 10f
1:00pm 23 26 mph 1016.8mb 10f
12:00pm 25 30 mph 1017.1mb 9f
11:00am 29 32 mph 1016.9mb 9f
10:00am 25 32 mph 1016.7mb 9f
9:00am 29 32 mph 1016.3mb 8f
8:00am 26 32 mph 1015.8mb 9f
7:00am 26 30 mph 1015.3mb 9f